Villas de Buenaventura, Puerto Rico
Current Conditions -  °F | °C
As of 12:53 PM on Sunday 23 Nov 2014 (Local Time) from TJNR Reporting Station
Clear Clear  
Wind Chill: 86°   Ceiling: Unl
Heat Index: 92°   Visibility: 10mi
Dew Point: 72°   Wind: 17mph
Humidity: 63%   Direction: 110°ESE
Pressure: 30.04"   Gusts: 24mph
Location:  18.0547°N, 65.8738°W
Report Text: TJNR 231653Z AUTO 11015G21KT 10SM CLR 30/22 A3004 RMK AO2 SLP174 T03000222 $
Loading
Personal Weather Stations






























Interactive Weather Map New forecast layout! Learn more

10-Day Weather Forecast

Advertisements
Track Severe Weather on mobile